sensor_id;sensor_type;location;lat;lon;timestamp;temperature;humidity
59208;DHT22;44977;53.132;6.408;2022-09-21T00:04:48;8.90;99.90
59208;DHT22;44977;53.132;6.408;2022-09-21T00:09:50;8.90;99.90
59208;DHT22;44977;53.132;6.408;2022-09-21T00:14:51;8.80;99.90
59208;DHT22;44977;53.132;6.408;2022-09-21T00:19:52;8.70;99.90
59208;DHT22;44977;53.132;6.408;2022-09-21T00:24:52;8.70;99.90
59208;DHT22;44977;53.132;6.408;2022-09-21T00:29:53;8.70;99.90
59208;DHT22;44977;53.132;6.408;2022-09-21T00:34:54;8.60;99.90
59208;DHT22;44977;53.132;6.408;2022-09-21T00:39:55;8.60;99.90
59208;DHT22;44977;53.132;6.408;2022-09-21T00:44:56;8.50;99.90
59208;DHT22;44977;53.132;6.408;2022-09-21T00:49:58;8.50;99.90
59208;DHT22;44977;53.132;6.408;2022-09-21T00:55:13;8.50;99.90
59208;DHT22;44977;53.132;6.408;2022-09-21T01:00:15;8.50;99.90
59208;DHT22;44977;53.132;6.408;2022-09-21T01:05:16;8.40;99.90
59208;DHT22;44977;53.132;6.408;2022-09-21T01:10:18;8.40;99.90
59208;DHT22;44977;53.132;6.408;2022-09-21T01:32:07;8.30;99.90
59208;DHT22;44977;53.132;6.408;2022-09-21T01:37:13;8.30;99.90
59208;DHT22;44977;53.132;6.408;2022-09-21T01:42:16;8.20;99.90
59208;DHT22;44977;53.132;6.408;2022-09-21T01:47:19;8.20;99.90
59208;DHT22;44977;53.132;6.408;2022-09-21T01:52:28;8.10;99.90
59208;DHT22;44977;53.132;6.408;2022-09-21T01:57:39;8.00;99.90
59208;DHT22;44977;53.132;6.408;2022-09-21T02:02:54;8.00;99.90
59208;DHT22;44977;53.132;6.408;2022-09-21T02:07:58;8.00;99.90
59208;DHT22;44977;53.132;6.408;2022-09-21T02:13:03;8.00;99.90
59208;DHT22;44977;53.132;6.408;2022-09-21T02:23:38;7.80;99.90
59208;DHT22;44977;53.132;6.408;2022-09-21T02:28:52;7.80;99.90
59208;DHT22;44977;53.132;6.408;2022-09-21T02:34:11;7.80;99.90
59208;DHT22;44977;53.132;6.408;2022-09-21T02:39:20;7.70;99.90
59208;DHT22;44977;53.132;6.408;2022-09-21T02:44:28;7.70;99.90
59208;DHT22;44977;53.132;6.408;2022-09-21T02:49:43;7.60;99.90
59208;DHT22;44977;53.132;6.408;2022-09-21T02:54:48;7.60;99.90
59208;DHT22;44977;53.132;6.408;2022-09-21T02:59:51;7.50;99.90
59208;DHT22;44977;53.132;6.408;2022-09-21T03:04:51;7.60;99.90
59208;DHT22;44977;53.132;6.408;2022-09-21T03:09:53;7.50;99.90
59208;DHT22;44977;53.132;6.408;2022-09-21T03:14:54;7.50;99.90
59208;DHT22;44977;53.132;6.408;2022-09-21T03:19:55;7.40;99.90
59208;DHT22;44977;53.132;6.408;2022-09-21T03:24:56;7.40;99.90
59208;DHT22;44977;53.132;6.408;2022-09-21T03:29:56;7.30;99.90
59208;DHT22;44977;53.132;6.408;2022-09-21T03:34:57;7.40;99.90
59208;DHT22;44977;53.132;6.408;2022-09-21T03:39:58;7.30;99.90
59208;DHT22;44977;53.132;6.408;2022-09-21T03:44:59;7.20;99.90
59208;DHT22;44977;53.132;6.408;2022-09-21T03:50:00;7.20;99.90
59208;DHT22;44977;53.132;6.408;2022-09-21T03:55:01;7.20;99.90
59208;DHT22;44977;53.132;6.408;2022-09-21T04:00:07;7.10;99.90
59208;DHT22;44977;53.132;6.408;2022-09-21T04:05:10;7.10;99.90
59208;DHT22;44977;53.132;6.408;2022-09-21T04:10:14;7.00;99.90
59208;DHT22;44977;53.132;6.408;2022-09-21T04:15:18;7.10;99.90
59208;DHT22;44977;53.132;6.408;2022-09-21T04:20:20;7.00;99.90
59208;DHT22;44977;53.132;6.408;2022-09-21T04:25:21;7.00;99.90
59208;DHT22;44977;53.132;6.408;2022-09-21T04:30:21;6.90;99.90
59208;DHT22;44977;53.132;6.408;2022-09-21T04:35:22;6.90;99.90
59208;DHT22;44977;53.132;6.408;2022-09-21T04:40:23;6.90;99.90
59208;DHT22;44977;53.132;6.408;2022-09-21T04:45:23;6.90;99.90
59208;DHT22;44977;53.132;6.408;2022-09-21T04:50:24;6.80;99.90
59208;DHT22;44977;53.132;6.408;2022-09-21T04:55:25;6.80;99.90
59208;DHT22;44977;53.132;6.408;2022-09-21T05:00:26;6.80;99.90
59208;DHT22;44977;53.132;6.408;2022-09-21T05:05:26;6.80;99.90
59208;DHT22;44977;53.132;6.408;2022-09-21T05:10:27;6.80;99.90
59208;DHT22;44977;53.132;6.408;2022-09-21T05:15:28;6.80;99.90
59208;DHT22;44977;53.132;6.408;2022-09-21T05:20:29;6.70;99.90
59208;DHT22;44977;53.132;6.408;2022-09-21T05:25:29;6.80;99.90
59208;DHT22;44977;53.132;6.408;2022-09-21T05:30:30;6.80;99.90
59208;DHT22;44977;53.132;6.408;2022-09-21T05:35:41;6.80;99.90
59208;DHT22;44977;53.132;6.408;2022-09-21T05:40:45;6.80;99.90
59208;DHT22;44977;53.132;6.408;2022-09-21T05:45:51;6.80;99.90
59208;DHT22;44977;53.132;6.408;2022-09-21T05:50:58;6.80;99.90
59208;DHT22;44977;53.132;6.408;2022-09-21T06:06:27;6.80;99.90
59208;DHT22;44977;53.132;6.408;2022-09-21T06:11:28;6.80;99.90
59208;DHT22;44977;53.132;6.408;2022-09-21T06:16:41;6.80;99.90
59208;DHT22;44977;53.132;6.408;2022-09-21T06:21:42;6.90;99.90
59208;DHT22;44977;53.132;6.408;2022-09-21T06:26:43;7.00;99.90
59208;DHT22;44977;53.132;6.408;2022-09-21T06:31:44;7.10;99.90
59208;DHT22;44977;53.132;6.408;2022-09-21T06:36:44;7.20;99.90
59208;DHT22;44977;53.132;6.408;2022-09-21T06:41:45;7.40;99.90
59208;DHT22;44977;53.132;6.408;2022-09-21T06:46:46;7.70;99.90
59208;DHT22;44977;53.132;6.408;2022-09-21T06:51:47;7.90;99.90
59208;DHT22;44977;53.132;6.408;2022-09-21T06:56:48;8.20;99.90
59208;DHT22;44977;53.132;6.408;2022-09-21T07:01:48;8.60;99.90
59208;DHT22;44977;53.132;6.408;2022-09-21T07:06:49;8.90;99.90
59208;DHT22;44977;53.132;6.408;2022-09-21T07:11:50;9.30;99.90
59208;DHT22;44977;53.132;6.408;2022-09-21T07:16:51;9.60;99.90
59208;DHT22;44977;53.132;6.408;2022-09-21T07:21:53;9.90;99.90
59208;DHT22;44977;53.132;6.408;2022-09-21T07:26:54;10.30;99.90
59208;DHT22;44977;53.132;6.408;2022-09-21T07:31:54;10.70;99.90
59208;DHT22;44977;53.132;6.408;2022-09-21T07:36:55;11.10;99.90
59208;DHT22;44977;53.132;6.408;2022-09-21T07:41:56;11.50;99.90
59208;DHT22;44977;53.132;6.408;2022-09-21T07:46:57;11.80;99.90
59208;DHT22;44977;53.132;6.408;2022-09-21T07:51:58;12.20;99.90
59208;DHT22;44977;53.132;6.408;2022-09-21T07:56:59;12.50;99.90
59208;DHT22;44977;53.132;6.408;2022-09-21T08:02:18;12.80;99.90
59208;DHT22;44977;53.132;6.408;2022-09-21T08:07:19;13.10;99.90
59208;DHT22;44977;53.132;6.408;2022-09-21T08:12:20;13.50;99.90
59208;DHT22;44977;53.132;6.408;2022-09-21T08:17:20;13.90;99.90
59208;DHT22;44977;53.132;6.408;2022-09-21T08:22:21;14.20;99.90
59208;DHT22;44977;53.132;6.408;2022-09-21T08:27:24;14.50;99.90
59208;DHT22;44977;53.132;6.408;2022-09-21T08:32:25;14.80;99.90
59208;DHT22;44977;53.132;6.408;2022-09-21T08:37:25;15.20;99.90
59208;DHT22;44977;53.132;6.408;2022-09-21T08:52:33;15.80;99.90
59208;DHT22;44977;53.132;6.408;2022-09-21T08:57:36;16.10;99.90
59208;DHT22;44977;53.132;6.408;2022-09-21T09:24:18;17.20;99.90
59208;DHT22;44977;53.132;6.408;2022-09-21T09:40:00;17.50;99.90
59208;DHT22;44977;53.132;6.408;2022-09-21T09:50:33;18.00;99.90
59208;DHT22;44977;53.132;6.408;2022-09-21T09:55:39;18.20;99.90
59208;DHT22;44977;53.132;6.408;2022-09-21T10:00:44;18.30;99.90
59208;DHT22;44977;53.132;6.408;2022-09-21T10:05:45;18.50;99.90
59208;DHT22;44977;53.132;6.408;2022-09-21T10:10:47;18.70;99.90
59208;DHT22;44977;53.132;6.408;2022-09-21T10:15:55;18.80;99.90
59208;DHT22;44977;53.132;6.408;2022-09-21T10:21:07;19.10;98.90
59208;DHT22;44977;53.132;6.408;2022-09-21T10:26:09;19.10;95.90
59208;DHT22;44977;53.132;6.408;2022-09-21T10:31:21;19.10;98.00
59208;DHT22;44977;53.132;6.408;2022-09-21T10:36:33;19.20;99.90
59208;DHT22;44977;53.132;6.408;2022-09-21T10:41:36;19.50;95.30
59208;DHT22;44977;53.132;6.408;2022-09-21T10:46:37;19.40;94.50
59208;DHT22;44977;53.132;6.408;2022-09-21T10:51:37;19.70;93.10
59208;DHT22;44977;53.132;6.408;2022-09-21T10:56:53;20.00;97.90
59208;DHT22;44977;53.132;6.408;2022-09-21T11:01:56;20.30;96.50
59208;DHT22;44977;53.132;6.408;2022-09-21T11:07:36;20.40;94.10
59208;DHT22;44977;53.132;6.408;2022-09-21T11:12:58;20.60;94.70
59208;DHT22;44977;53.132;6.408;2022-09-21T11:28:53;20.40;82.40
59208;DHT22;44977;53.132;6.408;2022-09-21T11:50:00;21.10;79.40
59208;DHT22;44977;53.132;6.408;2022-09-21T12:00:19;21.00;72.40
59208;DHT22;44977;53.132;6.408;2022-09-21T12:05:28;20.90;73.90
59208;DHT22;44977;53.132;6.408;2022-09-21T12:21:32;20.60;72.30
59208;DHT22;44977;53.132;6.408;2022-09-21T12:26:43;20.70;76.70
59208;DHT22;44977;53.132;6.408;2022-09-21T12:32:10;21.00;71.20
59208;DHT22;44977;53.132;6.408;2022-09-21T12:37:39;21.10;64.80
59208;DHT22;44977;53.132;6.408;2022-09-21T12:42:49;21.00;65.80
59208;DHT22;44977;53.132;6.408;2022-09-21T12:48:25;21.00;64.50
59208;DHT22;44977;53.132;6.408;2022-09-21T12:53:31;21.10;66.50
59208;DHT22;44977;53.132;6.408;2022-09-21T13:09:19;20.40;66.20
59208;DHT22;44977;53.132;6.408;2022-09-21T13:14:20;20.10;66.40
59208;DHT22;44977;53.132;6.408;2022-09-21T13:19:25;20.00;72.90
59208;DHT22;44977;53.132;6.408;2022-09-21T13:24:28;20.10;75.40
59208;DHT22;44977;53.132;6.408;2022-09-21T13:29:34;20.20;79.80
59208;DHT22;44977;53.132;6.408;2022-09-21T13:34:40;20.10;77.20
59208;DHT22;44977;53.132;6.408;2022-09-21T13:44:49;20.10;74.00
59208;DHT22;44977;53.132;6.408;2022-09-21T13:49:50;20.00;67.90
59208;DHT22;44977;53.132;6.408;2022-09-21T13:54:58;20.00;68.30
59208;DHT22;44977;53.132;6.408;2022-09-21T14:00:07;20.10;63.60
59208;DHT22;44977;53.132;6.408;2022-09-21T14:05:32;20.20;63.30
59208;DHT22;44977;53.132;6.408;2022-09-21T14:10:36;20.20;64.90
59208;DHT22;44977;53.132;6.408;2022-09-21T14:15:38;20.10;63.90
59208;DHT22;44977;53.132;6.408;2022-09-21T14:20:39;20.30;65.00
59208;DHT22;44977;53.132;6.408;2022-09-21T14:25:50;20.40;62.20
59208;DHT22;44977;53.132;6.408;2022-09-21T14:30:55;20.50;62.80
59208;DHT22;44977;53.132;6.408;2022-09-21T14:35:58;20.60;66.10
59208;DHT22;44977;53.132;6.408;2022-09-21T14:41:04;20.60;66.80
59208;DHT22;44977;53.132;6.408;2022-09-21T15:02:19;20.80;72.50
59208;DHT22;44977;53.132;6.408;2022-09-21T15:18:41;20.90;77.00
59208;DHT22;44977;53.132;6.408;2022-09-21T15:23:41;20.80;71.80
59208;DHT22;44977;53.132;6.408;2022-09-21T15:28:45;20.60;75.30
59208;DHT22;44977;53.132;6.408;2022-09-21T15:33:51;20.60;75.20
59208;DHT22;44977;53.132;6.408;2022-09-21T15:38:54;20.30;75.20
59208;DHT22;44977;53.132;6.408;2022-09-21T15:44:06;20.40;77.10
59208;DHT22;44977;53.132;6.408;2022-09-21T15:49:15;20.20;76.60
59208;DHT22;44977;53.132;6.408;2022-09-21T15:59:22;20.00;73.40
59208;DHT22;44977;53.132;6.408;2022-09-21T16:04:24;19.90;80.10
59208;DHT22;44977;53.132;6.408;2022-09-21T16:09:33;19.70;73.60
59208;DHT22;44977;53.132;6.408;2022-09-21T16:14:46;19.50;87.20
59208;DHT22;44977;53.132;6.408;2022-09-21T16:24:59;19.20;85.80
59208;DHT22;44977;53.132;6.408;2022-09-21T16:30:00;19.10;80.60
59208;DHT22;44977;53.132;6.408;2022-09-21T16:35:23;18.90;85.40
59208;DHT22;44977;53.132;6.408;2022-09-21T16:40:28;18.80;90.80
59208;DHT22;44977;53.132;6.408;2022-09-21T16:45:30;18.60;90.30
59208;DHT22;44977;53.132;6.408;2022-09-21T16:50:31;18.40;91.80
59208;DHT22;44977;53.132;6.408;2022-09-21T16:55:31;18.20;93.90
59208;DHT22;44977;53.132;6.408;2022-09-21T17:00:38;18.10;95.30
59208;DHT22;44977;53.132;6.408;2022-09-21T17:05:39;17.90;98.10
59208;DHT22;44977;53.132;6.408;2022-09-21T17:10:42;17.80;99.90
59208;DHT22;44977;53.132;6.408;2022-09-21T17:15:46;17.60;99.90
59208;DHT22;44977;53.132;6.408;2022-09-21T17:20:47;17.40;99.90
59208;DHT22;44977;53.132;6.408;2022-09-21T17:25:48;17.30;99.90
59208;DHT22;44977;53.132;6.408;2022-09-21T17:30:49;17.10;99.90
59208;DHT22;44977;53.132;6.408;2022-09-21T17:35:50;16.90;99.90
59208;DHT22;44977;53.132;6.408;2022-09-21T17:40:52;16.70;99.90
59208;DHT22;44977;53.132;6.408;2022-09-21T17:51:32;16.40;99.90
59208;DHT22;44977;53.132;6.408;2022-09-21T17:57:01;16.20;99.90
59208;DHT22;44977;53.132;6.408;2022-09-21T18:02:21;16.00;99.90
59208;DHT22;44977;53.132;6.408;2022-09-21T18:07:22;15.80;99.90
59208;DHT22;44977;53.132;6.408;2022-09-21T18:18:11;15.60;99.90
59208;DHT22;44977;53.132;6.408;2022-09-21T18:23:32;15.40;99.90
59208;DHT22;44977;53.132;6.408;2022-09-21T18:28:39;15.20;99.90
59208;DHT22;44977;53.132;6.408;2022-09-21T18:34:01;15.10;99.90
59208;DHT22;44977;53.132;6.408;2022-09-21T18:44:52;14.80;99.90
59208;DHT22;44977;53.132;6.408;2022-09-21T18:50:09;14.60;99.90
59208;DHT22;44977;53.132;6.408;2022-09-21T19:00:28;14.40;99.90
59208;DHT22;44977;53.132;6.408;2022-09-21T19:05:36;14.20;99.90
59208;DHT22;44977;53.132;6.408;2022-09-21T19:11:02;14.10;99.90
59208;DHT22;44977;53.132;6.408;2022-09-21T19:16:17;14.00;99.90
59208;DHT22;44977;53.132;6.408;2022-09-21T19:26:48;13.80;99.90
59208;DHT22;44977;53.132;6.408;2022-09-21T19:31:50;13.60;99.90
59208;DHT22;44977;53.132;6.408;2022-09-21T19:36:52;13.50;99.90
59208;DHT22;44977;53.132;6.408;2022-09-21T19:42:19;13.50;99.90
59208;DHT22;44977;53.132;6.408;2022-09-21T19:47:29;13.40;99.90
59208;DHT22;44977;53.132;6.408;2022-09-21T19:52:34;13.30;99.90
59208;DHT22;44977;53.132;6.408;2022-09-21T19:57:35;13.20;99.90
59208;DHT22;44977;53.132;6.408;2022-09-21T20:03:05;13.10;99.90
59208;DHT22;44977;53.132;6.408;2022-09-21T20:13:55;12.90;99.90
59208;DHT22;44977;53.132;6.408;2022-09-21T20:19:14;12.80;99.90
59208;DHT22;44977;53.132;6.408;2022-09-21T20:24:23;12.60;99.90
59208;DHT22;44977;53.132;6.408;2022-09-21T20:29:25;12.50;99.90
59208;DHT22;44977;53.132;6.408;2022-09-21T20:34:26;12.50;99.90
59208;DHT22;44977;53.132;6.408;2022-09-21T20:39:27;12.40;99.90
59208;DHT22;44977;53.132;6.408;2022-09-21T20:44:27;12.30;99.90
59208;DHT22;44977;53.132;6.408;2022-09-21T20:49:28;12.20;99.90
59208;DHT22;44977;53.132;6.408;2022-09-21T20:54:29;12.10;99.90
59208;DHT22;44977;53.132;6.408;2022-09-21T20:59:29;12.10;99.90
59208;DHT22;44977;53.132;6.408;2022-09-21T21:04:30;12.00;99.90
59208;DHT22;44977;53.132;6.408;2022-09-21T21:09:32;11.90;99.90
59208;DHT22;44977;53.132;6.408;2022-09-21T21:14:32;11.90;99.90
59208;DHT22;44977;53.132;6.408;2022-09-21T21:19:33;11.80;99.90
59208;DHT22;44977;53.132;6.408;2022-09-21T21:24:34;11.70;99.90
59208;DHT22;44977;53.132;6.408;2022-09-21T21:29:42;11.60;99.90
59208;DHT22;44977;53.132;6.408;2022-09-21T21:34:43;11.50;99.90
59208;DHT22;44977;53.132;6.408;2022-09-21T21:39:44;11.40;99.90
59208;DHT22;44977;53.132;6.408;2022-09-21T21:44:46;11.40;99.90
59208;DHT22;44977;53.132;6.408;2022-09-21T21:49:47;11.30;99.90
59208;DHT22;44977;53.132;6.408;2022-09-21T21:54:47;11.20;99.90
59208;DHT22;44977;53.132;6.408;2022-09-21T21:59:49;11.10;99.90
59208;DHT22;44977;53.132;6.408;2022-09-21T22:04:50;11.00;99.90
59208;DHT22;44977;53.132;6.408;2022-09-21T22:09:50;11.00;99.90
59208;DHT22;44977;53.132;6.408;2022-09-21T22:14:51;10.90;99.90
59208;DHT22;44977;53.132;6.408;2022-09-21T22:19:51;10.90;99.90
59208;DHT22;44977;53.132;6.408;2022-09-21T22:24:53;10.80;99.90
59208;DHT22;44977;53.132;6.408;2022-09-21T22:29:54;10.70;99.90
59208;DHT22;44977;53.132;6.408;2022-09-21T22:34:54;10.60;99.90
59208;DHT22;44977;53.132;6.408;2022-09-21T22:39:55;10.50;99.90
59208;DHT22;44977;53.132;6.408;2022-09-21T22:44:56;10.50;99.90
59208;DHT22;44977;53.132;6.408;2022-09-21T22:49:56;10.40;99.90
59208;DHT22;44977;53.132;6.408;2022-09-21T22:54:57;10.30;99.90
59208;DHT22;44977;53.132;6.408;2022-09-21T22:59:57;10.30;99.90
59208;DHT22;44977;53.132;6.408;2022-09-21T23:04:58;10.20;99.90
59208;DHT22;44977;53.132;6.408;2022-09-21T23:09:59;10.10;99.90
59208;DHT22;44977;53.132;6.408;2022-09-21T23:15:00;10.10;99.90
59208;DHT22;44977;53.132;6.408;2022-09-21T23:20:01;9.90;99.90
59208;DHT22;44977;53.132;6.408;2022-09-21T23:25:03;9.90;99.90
59208;DHT22;44977;53.132;6.408;2022-09-21T23:30:03;9.90;99.90
59208;DHT22;44977;53.132;6.408;2022-09-21T23:35:04;9.80;99.90
59208;DHT22;44977;53.132;6.408;2022-09-21T23:40:06;9.80;99.90
59208;DHT22;44977;53.132;6.408;2022-09-21T23:45:07;9.70;99.90
59208;DHT22;44977;53.132;6.408;2022-09-21T23:50:08;9.60;99.90
59208;DHT22;44977;53.132;6.408;2022-09-21T23:55:09;9.50;99.90
